createdAt,value
2022-12-15T00:03:09.314Z,12.50
2022-12-15T00:08:30.396Z,9.50
2022-12-15T00:13:52.277Z,12.00
2022-12-15T00:19:12.274Z,13.50
2022-12-15T00:24:32.361Z,15.00
2022-12-15T00:29:54.235Z,10.00
2022-12-15T00:35:14.479Z,11.75
2022-12-15T00:40:17.469Z,13.50
2022-12-15T00:45:41.524Z,11.00
2022-12-15T00:50:54.478Z,11.00
2022-12-15T00:56:14.600Z,13.00
2022-12-15T01:01:36.195Z,11.75
2022-12-15T01:06:56.500Z,8.75
2022-12-15T01:12:16.781Z,11.75
2022-12-15T01:17:39.519Z,12.25
2022-12-15T01:22:42.726Z,12.25
2022-12-15T01:27:45.950Z,13.75
2022-12-15T01:32:50.669Z,12.25
2022-12-15T01:37:53.372Z,12.25
2022-12-15T01:42:56.121Z,11.50
2022-12-15T01:48:05.299Z,10.75
2022-12-15T01:53:09.253Z,10.50
2022-12-15T01:58:15.579Z,11.75
2022-12-15T02:03:20.505Z,10.75
2022-12-15T02:08:23.455Z,13.50
2022-12-15T02:13:32.496Z,11.25
2022-12-15T02:18:47.918Z,11.75
2022-12-15T02:24:34.719Z,10.50
2022-12-15T02:29:58.962Z,13.25
2022-12-15T02:35:07.335Z,13.00
2022-12-15T02:40:11.768Z,11.75
2022-12-15T02:45:17.769Z,10.25
2022-12-15T02:50:48.089Z,11.75
2022-12-15T02:55:58.937Z,10.25
2022-12-15T03:01:06.955Z,15.75
2022-12-15T03:06:11.362Z,11.75
2022-12-15T03:11:14.100Z,13.00
2022-12-15T03:16:16.913Z,10.25
2022-12-15T03:21:21.140Z,12.00
2022-12-15T03:26:23.922Z,8.00
2022-12-15T03:31:27.499Z,8.75
2022-12-15T03:36:31.710Z,11.00
2022-12-15T03:41:34.592Z,12.75
2022-12-15T03:46:37.397Z,10.25
2022-12-15T03:51:41.637Z,10.25
2022-12-15T03:56:44.369Z,11.00
2022-12-15T04:01:49.146Z,10.00
2022-12-15T04:06:53.711Z,11.75
2022-12-15T04:11:56.441Z,9.25
2022-12-15T04:16:59.639Z,10.25
2022-12-15T04:22:04.629Z,8.75
2022-12-15T04:27:24.611Z,11.50
2022-12-15T04:32:45.202Z,10.50
2022-12-15T04:38:12.132Z,10.75
2022-12-15T04:43:32.902Z,10.75
2022-12-15T04:48:53.679Z,10.25
2022-12-15T04:54:15.240Z,9.75
2022-12-15T04:59:35.563Z,9.50
2022-12-15T05:04:55.762Z,10.75
2022-12-15T05:10:17.222Z,7.75
2022-12-15T05:15:37.323Z,9.00
2022-12-15T05:20:57.833Z,8.00
2022-12-15T05:26:19.562Z,9.00
2022-12-15T05:31:39.983Z,9.25
2022-12-15T05:36:42.915Z,10.25
2022-12-15T05:41:47.257Z,9.75
2022-12-15T05:46:50.223Z,12.75
2022-12-15T05:51:53.231Z,10.00
2022-12-15T05:56:57.361Z,7.75
2022-12-15T06:02:00.450Z,9.25
2022-12-15T06:07:03.446Z,9.00
2022-12-15T06:12:08.055Z,9.75
2022-12-15T06:17:10.810Z,8.50
2022-12-15T06:22:13.869Z,10.00
2022-12-15T06:27:18.021Z,9.75
2022-12-15T06:32:21.312Z,8.75
2022-12-15T06:37:24.147Z,8.75
2022-12-15T06:42:28.248Z,9.00
2022-12-15T06:47:31.008Z,10.75
2022-12-15T06:52:33.731Z,10.00
2022-12-15T06:57:38.868Z,6.75
2022-12-15T07:02:43.008Z,12.00
2022-12-15T07:07:46.082Z,9.25
2022-12-15T07:12:51.268Z,8.00
2022-12-15T07:17:56.541Z,7.50
2022-12-15T07:23:00.621Z,8.50
2022-12-15T07:28:05.864Z,9.25
2022-12-15T07:33:08.682Z,8.75
2022-12-15T07:38:11.440Z,9.75
2022-12-15T07:43:15.720Z,10.25
2022-12-15T07:48:18.482Z,7.75
2022-12-15T07:53:21.408Z,10.50
2022-12-15T07:58:26.419Z,6.25
2022-12-15T08:03:30.997Z,51.00
2022-12-15T08:08:36.148Z,49.60
2022-12-15T08:19:06.255Z,36.40
2022-12-15T08:24:10.361Z,34.40
2022-12-15T08:29:49.510Z,34.80
2022-12-15T08:34:39.333Z,28.20
2022-12-15T08:39:42.496Z,27.40
2022-12-15T08:44:49.578Z,26.00
2022-12-15T08:49:52.993Z,24.20
2022-12-15T08:54:56.437Z,24.20
2022-12-15T09:00:00.811Z,23.60
2022-12-15T09:05:06.223Z,24.00
2022-12-15T09:10:09.692Z,20.00
2022-12-15T09:15:14.166Z,21.50
2022-12-15T09:20:18.077Z,18.50
2022-12-15T09:25:21.002Z,23.00
2022-12-15T09:30:25.365Z,29.40
2022-12-15T09:35:28.301Z,26.60
2022-12-15T09:40:33.351Z,26.60
2022-12-15T09:45:43.449Z,33.80
2022-12-15T09:50:49.312Z,33.00
2022-12-15T09:55:59.739Z,29.20
2022-12-15T10:01:12.930Z,33.60
2022-12-15T10:06:21.411Z,30.40
2022-12-15T10:11:41.580Z,30.00
2022-12-15T10:16:56.353Z,34.20
2022-12-15T10:21:59.732Z,41.80
2022-12-15T10:27:16.470Z,40.40
2022-12-15T10:32:24.519Z,40.20
2022-12-15T10:37:27.273Z,36.20
2022-12-15T10:42:30.214Z,39.20
2022-12-15T10:47:34.388Z,38.40
2022-12-15T10:52:38.839Z,38.40
2022-12-15T10:57:59.494Z,35.80
2022-12-15T11:03:22.751Z,34.80
2022-12-15T11:08:27.286Z,38.60
2022-12-15T11:13:34.834Z,35.20
2022-12-15T11:18:46.187Z,31.60
2022-12-15T11:23:58.723Z,34.00
2022-12-15T11:29:08.360Z,33.40
2022-12-15T11:34:15.596Z,34.40
2022-12-15T11:39:31.311Z,37.40
2022-12-15T11:44:44.993Z,34.40
2022-12-15T11:50:18.000Z,31.80
2022-12-15T11:55:32.128Z,34.20
2022-12-15T12:00:44.600Z,35.60
2022-12-15T12:06:04.185Z,30.20
2022-12-15T12:11:13.376Z,34.40
2022-12-15T12:16:29.896Z,31.00
2022-12-15T12:21:38.702Z,36.80
2022-12-15T12:26:44.920Z,30.60
2022-12-15T12:32:04.427Z,31.60
2022-12-15T12:37:20.897Z,30.60
2022-12-15T12:42:32.229Z,29.60
2022-12-15T12:47:38.621Z,27.00
2022-12-15T12:52:50.848Z,31.00
2022-12-15T12:57:54.794Z,32.60
2022-12-15T13:03:20.192Z,30.00
2022-12-15T13:08:52.523Z,26.40
2022-12-15T13:13:55.583Z,30.80
2022-12-15T13:19:01.977Z,25.80
2022-12-15T13:24:07.077Z,23.20
2022-12-15T13:29:10.720Z,26.00
2022-12-15T13:34:25.856Z,27.20
2022-12-15T13:39:58.232Z,28.00
2022-12-15T13:45:41.234Z,30.80
2022-12-15T13:50:51.197Z,27.20
2022-12-15T13:56:02.053Z,27.20
2022-12-15T14:01:18.770Z,28.60
2022-12-15T14:06:21.982Z,23.80
2022-12-15T14:17:01.591Z,28.00
2022-12-15T14:22:04.599Z,26.00
2022-12-15T14:27:08.804Z,25.80
2022-12-15T14:32:12.033Z,31.20
2022-12-15T14:37:20.024Z,29.40
2022-12-15T14:42:27.327Z,27.20
2022-12-15T14:47:33.201Z,29.20
2022-12-15T14:52:39.888Z,24.40
2022-12-15T14:57:45.887Z,30.20
2022-12-15T15:02:48.783Z,27.60
2022-12-15T15:03:11.857Z,27.40
2022-12-15T15:07:56.766Z,23.40
2022-12-15T15:13:00.909Z,22.00
2022-12-15T15:18:03.687Z,23.00
2022-12-15T15:23:16.830Z,23.75
2022-12-15T15:28:27.276Z,23.50
2022-12-15T15:33:30.038Z,23.80
2022-12-15T15:38:35.213Z,24.25
2022-12-15T15:43:39.929Z,22.20
2022-12-15T15:48:46.787Z,24.25
2022-12-15T15:53:49.597Z,21.60
2022-12-15T15:58:55.056Z,27.20
2022-12-15T16:03:57.907Z,20.80
2022-12-15T16:09:00.860Z,21.25
2022-12-15T16:14:05.452Z,24.50
2022-12-15T16:19:08.266Z,22.50
2022-12-15T16:24:15.383Z,23.40
2022-12-15T16:29:21.761Z,19.00
2022-12-15T16:34:24.832Z,17.50
2022-12-15T16:39:32.399Z,19.25
2022-12-15T16:44:36.791Z,23.00
2022-12-15T16:49:40.515Z,23.25
2022-12-15T16:54:48.880Z,20.25
2022-12-15T16:59:53.009Z,21.75
2022-12-15T17:04:56.332Z,20.50
2022-12-15T17:09:59.851Z,29.60
2022-12-15T17:15:04.272Z,43.20
2022-12-15T17:26:18.207Z,62.00
2022-12-15T17:31:02.415Z,61.00
2022-12-15T17:36:15.598Z,64.60
2022-12-15T17:41:42.311Z,61.60
2022-12-15T17:46:42.981Z,62.20
2022-12-15T17:51:47.862Z,63.00
2022-12-15T17:56:51.080Z,59.20
2022-12-15T18:01:57.064Z,58.60
2022-12-15T18:07:02.430Z,57.20
2022-12-15T18:12:11.976Z,57.40
2022-12-15T18:17:16.378Z,55.20
2022-12-15T18:22:22.062Z,53.00
2022-12-15T18:27:27.425Z,56.20
2022-12-15T18:32:32.663Z,49.60
2022-12-15T18:37:35.959Z,49.80
2022-12-15T18:42:40.016Z,51.60
2022-12-15T18:47:44.449Z,50.60
2022-12-15T18:52:48.573Z,48.60
2022-12-15T18:57:52.923Z,50.00
2022-12-15T19:03:00.510Z,49.40
2022-12-15T19:08:09.900Z,44.60
2022-12-15T19:13:15.420Z,46.60
2022-12-15T19:18:39.372Z,45.60
2022-12-15T19:23:42.156Z,45.20
2022-12-15T19:28:45.137Z,44.20
2022-12-15T19:33:49.449Z,44.00
2022-12-15T19:38:55.792Z,46.60
2022-12-15T19:43:58.621Z,45.80
2022-12-15T19:49:02.776Z,43.20
2022-12-15T19:54:06.151Z,41.20
2022-12-15T19:59:19.813Z,45.20
2022-12-15T20:04:25.199Z,44.00
2022-12-15T20:09:28.051Z,39.40
2022-12-15T20:14:30.920Z,43.80
2022-12-15T20:19:35.311Z,42.20
2022-12-15T20:24:38.228Z,44.60
2022-12-15T20:29:41.091Z,44.40
2022-12-15T20:34:45.759Z,37.40
2022-12-15T20:39:52.563Z,35.40
2022-12-15T20:44:58.494Z,40.80
2022-12-15T20:50:03.260Z,38.20
2022-12-15T20:55:07.870Z,34.40
2022-12-15T21:00:13.033Z,41.40
2022-12-15T21:05:22.564Z,40.00
2022-12-15T21:10:25.384Z,40.80
2022-12-15T21:15:28.241Z,37.60
2022-12-15T21:20:33.200Z,37.60
2022-12-15T21:25:36.128Z,34.60
2022-12-15T21:30:39.958Z,35.20
2022-12-15T21:35:47.004Z,33.20
2022-12-15T21:40:52.204Z,30.80
2022-12-15T21:45:59.670Z,39.80
2022-12-15T21:51:04.031Z,33.20
2022-12-15T21:56:07.549Z,36.80
2022-12-15T22:01:15.485Z,34.40
2022-12-15T22:06:22.067Z,33.00
2022-12-15T22:11:27.230Z,35.80
2022-12-15T22:16:30.125Z,35.20
2022-12-15T22:21:34.271Z,35.40
2022-12-15T22:26:38.178Z,35.00
2022-12-15T22:31:40.959Z,35.20
2022-12-15T22:36:45.220Z,31.20
2022-12-15T22:41:50.151Z,28.40
2022-12-15T22:46:55.296Z,31.20
2022-12-15T22:51:59.582Z,34.20
2022-12-15T22:57:05.325Z,27.60
2022-12-15T23:02:09.944Z,28.60
2022-12-15T23:07:14.538Z,29.40
2022-12-15T23:12:17.348Z,28.80
2022-12-15T23:17:20.180Z,27.80
2022-12-15T23:22:24.524Z,32.60
2022-12-15T23:27:27.318Z,29.80
2022-12-15T23:32:30.262Z,26.00
2022-12-15T23:37:34.771Z,29.20
2022-12-15T23:42:37.531Z,28.00
2022-12-15T23:47:40.488Z,27.60
2022-12-15T23:52:44.640Z,30.60
2022-12-15T23:57:47.443Z,25.60
